< < Back
Terminal Aerodrome Forecast


Current Version              Previous Versions:   1  2  3  4  5  6  7  8  9  

Terminal Aerodrome Forecast

367
FTUS42 KFFC 031602 AAA
TAFAHN
TAF AMD
KAHN 031602Z 0316/0412 05007KT 6SM -DZ BR BKN008
      TEMPO 0316/0318 2SM -RA BKN004
     FM031900 05006KT P6SM OVC004
     FM040600 03005KT 5SM BR OVC003
     FM041100 28003KT P6SM OVC008=

Latest METAR

360
SAUS70 KWBC 032200 RRA
MTRAHN
METAR KAHN 032151Z 08006KT 4SM BR OVC003 08/07 A3015 RMK AO2 SLP210
T00780072


USA.gov is the U.S. government's official web portal to all federal, state and local government web resources and services.